createdAt,value
2017-09-05T00:01:58.385Z,10.30
2017-09-05T00:04:25.000Z,13.03
2017-09-05T00:06:51.456Z,13.27
2017-09-05T00:09:18.085Z,10.37
2017-09-05T00:11:44.576Z,12.83
2017-09-05T00:14:11.370Z,12.43
2017-09-05T00:16:37.987Z,11.60
2017-09-05T00:19:04.645Z,12.07
2017-09-05T00:21:31.079Z,14.77
2017-09-05T00:23:57.720Z,15.47
2017-09-05T00:26:24.329Z,14.20
2017-09-05T00:28:50.946Z,13.87
2017-09-05T00:31:17.633Z,14.60
2017-09-05T00:33:44.067Z,14.30
2017-09-05T00:36:10.646Z,12.70
2017-09-05T00:38:37.112Z,12.77
2017-09-05T00:41:03.774Z,12.67
2017-09-05T00:43:30.414Z,12.17
2017-09-05T00:45:56.852Z,11.17
2017-09-05T00:48:23.485Z,12.63
2017-09-05T00:50:50.069Z,11.83
2017-09-05T00:53:16.766Z,12.50
2017-09-05T00:55:43.257Z,12.70
2017-09-05T00:58:09.834Z,13.33
2017-09-05T01:00:36.266Z,14.20
2017-09-05T01:03:02.905Z,12.97
2017-09-05T01:05:29.542Z,11.90
2017-09-05T01:07:56.166Z,12.70
2017-09-05T01:10:22.657Z,13.27
2017-09-05T01:12:49.051Z,14.43
2017-09-05T01:15:15.542Z,12.40
2017-09-05T01:17:41.978Z,15.00
2017-09-05T01:20:08.757Z,14.10
2017-09-05T01:22:35.243Z,13.73
2017-09-05T01:25:01.683Z,12.67
2017-09-05T01:27:28.468Z,13.70
2017-09-05T01:29:54.900Z,12.80
2017-09-05T01:32:21.386Z,14.10
2017-09-05T01:34:48.177Z,16.37
2017-09-05T01:37:14.799Z,16.93
2017-09-05T01:39:41.453Z,14.07
2017-09-05T01:42:08.091Z,11.80
2017-09-05T01:44:34.720Z,11.80
2017-09-05T01:47:01.211Z,12.07
2017-09-05T01:49:28.003Z,9.60
2017-09-05T01:51:54.619Z,10.80
2017-09-05T01:54:21.082Z,11.00
2017-09-05T01:56:47.655Z,11.60
2017-09-05T01:59:14.121Z,12.60
2017-09-05T02:01:40.569Z,10.67
2017-09-05T02:04:07.213Z,12.20
2017-09-05T02:06:33.842Z,11.97
2017-09-05T02:09:00.497Z,13.00
2017-09-05T02:11:27.080Z,13.73
2017-09-05T02:13:53.747Z,12.33
2017-09-05T02:16:20.412Z,14.43
2017-09-05T02:18:47.048Z,12.23
2017-09-05T02:21:13.673Z,11.60
2017-09-05T02:23:40.119Z,12.30
2017-09-05T02:26:06.550Z,12.63
2017-09-05T02:28:33.190Z,11.03
2017-09-05T02:30:59.522Z,12.37
2017-09-05T02:33:26.054Z,13.03
2017-09-05T02:35:52.674Z,11.90
2017-09-05T02:38:19.341Z,12.77
2017-09-05T02:40:45.970Z,14.13
2017-09-05T02:43:12.600Z,11.10
2017-09-05T02:45:39.107Z,12.17
2017-09-05T02:48:05.887Z,10.57
2017-09-05T02:50:32.496Z,12.50
2017-09-05T02:52:59.160Z,11.93
2017-09-05T02:55:25.799Z,11.57
2017-09-05T02:57:52.424Z,14.30
2017-09-05T03:00:18.917Z,13.27
2017-09-05T03:02:45.511Z,13.37
2017-09-05T03:05:12.001Z,14.17
2017-09-05T03:07:38.442Z,12.33
2017-09-05T03:10:05.217Z,11.70
2017-09-05T03:12:31.681Z,14.80
2017-09-05T03:14:58.268Z,10.60
2017-09-05T03:17:24.886Z,10.63
2017-09-05T03:19:51.567Z,9.73
2017-09-05T03:22:18.195Z,11.40
2017-09-05T03:24:44.812Z,9.20
2017-09-05T03:27:11.481Z,9.80
2017-09-05T03:29:38.096Z,10.17
2017-09-05T03:32:04.713Z,9.40
2017-09-05T03:34:31.186Z,9.40
2017-09-05T03:36:57.694Z,10.60
2017-09-05T03:39:24.465Z,9.80
2017-09-05T03:41:50.953Z,10.27
2017-09-05T03:44:17.330Z,9.67
2017-09-05T03:46:43.913Z,9.67
2017-09-05T03:49:10.609Z,10.87
2017-09-05T03:51:37.097Z,10.27
2017-09-05T03:54:03.709Z,9.87
2017-09-05T03:56:30.106Z,11.17
2017-09-05T03:58:56.723Z,12.53
2017-09-05T04:01:23.199Z,10.10
2017-09-05T04:03:49.804Z,11.33
2017-09-05T04:06:16.113Z,10.93
2017-09-05T04:08:42.862Z,11.57
2017-09-05T04:11:09.534Z,12.03
2017-09-05T04:13:35.962Z,11.50
2017-09-05T04:16:02.404Z,12.70
2017-09-05T04:18:28.882Z,14.90
2017-09-05T04:20:55.323Z,12.30
2017-09-05T04:23:22.108Z,11.13
2017-09-05T04:25:48.394Z,13.40
2017-09-05T04:28:14.823Z,10.80
2017-09-05T04:30:41.393Z,13.07
2017-09-05T04:33:08.047Z,12.63
2017-09-05T04:35:34.465Z,10.40
2017-09-05T04:38:01.115Z,11.70
2017-09-05T04:40:27.734Z,12.20
2017-09-05T04:42:54.038Z,13.00
2017-09-05T04:45:20.622Z,12.77
2017-09-05T04:47:46.926Z,12.40
2017-09-05T04:50:13.212Z,12.43
2017-09-05T04:52:39.595Z,11.60
2017-09-05T04:55:05.916Z,13.00
2017-09-05T04:57:32.224Z,11.17
2017-09-05T04:59:58.584Z,11.97
2017-09-05T05:02:24.904Z,13.43
2017-09-05T05:04:51.212Z,14.20
2017-09-05T05:07:17.595Z,12.93
2017-09-05T05:09:43.905Z,12.57
2017-09-05T05:12:10.232Z,11.33
2017-09-05T05:14:36.625Z,11.60
2017-09-05T05:17:02.948Z,11.47
2017-09-05T05:19:29.269Z,9.87
2017-09-05T05:21:55.634Z,11.27
2017-09-05T05:24:21.948Z,12.10
2017-09-05T05:26:48.250Z,10.13
2017-09-05T05:29:14.624Z,11.13
2017-09-05T05:31:40.944Z,12.10
2017-09-05T05:34:07.244Z,10.10
2017-09-05T05:36:33.626Z,10.60
2017-09-05T05:38:59.952Z,9.77
2017-09-05T05:41:26.258Z,11.93
2017-09-05T05:43:52.604Z,10.53
2017-09-05T05:46:18.928Z,10.80
2017-09-05T05:48:45.225Z,9.60
2017-09-05T05:51:11.593Z,11.03
2017-09-05T05:53:37.912Z,9.90
2017-09-05T05:56:04.239Z,11.73
2017-09-05T05:58:30.609Z,9.40
2017-09-05T06:00:56.995Z,27.02
2017-09-05T06:03:23.316Z,11.03
2017-09-05T06:05:49.706Z,8.47
2017-09-05T06:08:16.018Z,9.40
2017-09-05T06:10:42.723Z,8.97
2017-09-05T06:13:09.302Z,9.43
2017-09-05T06:15:35.620Z,9.17
2017-09-05T06:18:01.942Z,8.60
2017-09-05T06:20:28.315Z,8.73
2017-09-05T06:22:54.620Z,7.20
2017-09-05T06:25:20.920Z,7.00
2017-09-05T06:27:47.289Z,6.60
2017-09-05T06:30:13.584Z,7.03
2017-09-05T06:32:39.904Z,8.23
2017-09-05T06:35:06.277Z,7.80
2017-09-05T06:37:32.577Z,7.23
2017-09-05T06:39:58.894Z,6.27
2017-09-05T06:42:25.263Z,5.83
2017-09-05T06:44:51.554Z,5.13
2017-09-05T06:47:17.846Z,6.60
2017-09-05T06:49:44.250Z,7.37
2017-09-05T06:52:10.545Z,7.57
2017-09-05T06:54:36.865Z,7.13
2017-09-05T06:57:03.236Z,7.10
2017-09-05T06:59:29.553Z,7.33
2017-09-05T07:01:55.872Z,5.53
2017-09-05T07:04:22.230Z,6.07
2017-09-05T07:06:48.536Z,6.80
2017-09-05T07:09:14.856Z,4.53
2017-09-05T07:11:41.225Z,4.30
2017-09-05T07:14:07.530Z,3.50
2017-09-05T07:16:33.859Z,4.67
2017-09-05T07:19:00.216Z,4.10
2017-09-05T07:21:26.533Z,4.43
2017-09-05T07:23:52.868Z,3.83
2017-09-05T07:26:19.229Z,4.43
2017-09-05T07:28:45.549Z,3.53
2017-09-05T07:31:11.851Z,2.70
2017-09-05T07:33:38.176Z,3.33
2017-09-05T07:36:04.495Z,3.00
2017-09-05T07:38:30.803Z,2.97
2017-09-05T07:40:57.112Z,2.40
2017-09-05T07:43:23.421Z,1.80
2017-09-05T07:45:49.729Z,1.90
2017-09-05T07:48:16.040Z,2.33
2017-09-05T07:50:42.337Z,2.00
2017-09-05T07:53:08.650Z,1.97
2017-09-05T07:55:34.953Z,1.80
2017-09-05T07:58:01.270Z,2.30
2017-09-05T08:00:27.565Z,1.53
2017-09-05T08:02:53.877Z,1.90
2017-09-05T08:05:20.187Z,2.17
2017-09-05T08:07:46.503Z,1.63
2017-09-05T08:10:12.833Z,1.60
2017-09-05T08:12:39.147Z,1.93
2017-09-05T08:15:05.475Z,2.00
2017-09-05T08:17:31.794Z,2.33
2017-09-05T08:19:58.106Z,2.30
2017-09-05T08:22:24.414Z,1.97
2017-09-05T08:24:50.739Z,2.40
2017-09-05T08:27:17.045Z,2.10
2017-09-05T08:29:43.345Z,1.40
2017-09-05T08:32:09.707Z,1.60
2017-09-05T08:34:36.024Z,2.20
2017-09-05T08:37:02.346Z,2.53
2017-09-05T08:39:28.665Z,2.40
2017-09-05T08:41:54.975Z,2.30
2017-09-05T08:46:53.046Z,2.23
2017-09-05T08:49:19.366Z,2.03
2017-09-05T08:51:45.716Z,1.70
2017-09-05T08:54:12.096Z,2.53
2017-09-05T08:56:38.388Z,2.43
2017-09-05T08:59:04.687Z,2.67
2017-09-05T09:01:31.065Z,1.90
2017-09-05T09:03:57.436Z,1.40
2017-09-05T09:06:23.773Z,1.70
2017-09-05T09:08:50.138Z,1.67
2017-09-05T09:11:16.449Z,1.87
2017-09-05T09:13:42.773Z,1.63
2017-09-05T09:16:09.149Z,2.20
2017-09-05T09:18:35.470Z,1.43
2017-09-05T09:21:01.813Z,1.60
2017-09-05T09:23:28.177Z,1.87
2017-09-05T09:25:54.481Z,1.33
2017-09-05T09:28:20.801Z,1.37
2017-09-05T09:30:47.169Z,1.40
2017-09-05T09:33:13.492Z,2.00
2017-09-05T09:35:39.802Z,2.20
2017-09-05T09:38:06.183Z,1.53
2017-09-05T09:40:32.485Z,2.00
2017-09-05T09:42:58.869Z,1.70
2017-09-05T09:45:25.243Z,1.80
2017-09-05T09:47:51.551Z,1.80
2017-09-05T09:50:17.933Z,3.00
2017-09-05T09:52:44.361Z,1.10
2017-09-05T09:55:10.757Z,1.60
2017-09-05T09:57:37.151Z,1.60
2017-09-05T10:00:03.607Z,1.47
2017-09-05T10:02:29.925Z,1.40
2017-09-05T10:04:56.284Z,1.73
2017-09-05T10:07:22.729Z,2.00
2017-09-05T10:09:49.044Z,1.00
2017-09-05T10:12:15.437Z,1.60
2017-09-05T10:14:41.815Z,1.50
2017-09-05T10:17:08.190Z,1.30
2017-09-05T10:19:34.571Z,1.50
2017-09-05T10:22:00.913Z,1.50
2017-09-05T10:24:27.217Z,1.70
2017-09-05T10:26:53.533Z,2.30
2017-09-05T10:29:19.916Z,1.57
2017-09-05T10:31:46.228Z,1.37
2017-09-05T10:34:12.528Z,2.43
2017-09-05T10:36:38.892Z,1.43
2017-09-05T10:39:05.202Z,1.67
2017-09-05T10:41:31.502Z,1.87
2017-09-05T10:43:57.945Z,1.50
2017-09-05T10:46:24.483Z,2.07
2017-09-05T10:48:50.793Z,2.40
2017-09-05T10:51:17.179Z,1.43
2017-09-05T10:53:43.494Z,1.80
2017-09-05T10:56:09.811Z,2.70
2017-09-05T10:58:36.192Z,1.40
2017-09-05T11:01:02.512Z,1.43
2017-09-05T11:03:28.814Z,2.00
2017-09-05T11:05:55.186Z,1.40
2017-09-05T11:08:21.493Z,1.90
2017-09-05T11:10:47.798Z,1.40
2017-09-05T11:13:14.175Z,1.23
2017-09-05T11:15:40.487Z,1.80
2017-09-05T11:18:06.773Z,1.37
2017-09-05T11:20:33.172Z,1.60
2017-09-05T11:22:59.505Z,1.70
2017-09-05T11:25:25.831Z,1.70
2017-09-05T11:27:52.206Z,2.60
2017-09-05T11:30:18.526Z,1.70
2017-09-05T11:32:44.851Z,1.67
2017-09-05T11:35:11.204Z,2.30
2017-09-05T11:37:37.494Z,1.60
2017-09-05T11:40:03.811Z,1.60
2017-09-05T11:42:30.203Z,1.53
2017-09-05T11:44:56.519Z,2.10
2017-09-05T11:47:22.839Z,1.57
2017-09-05T11:49:49.207Z,1.30
2017-09-05T11:52:15.526Z,1.67
2017-09-05T11:54:41.835Z,1.90
2017-09-05T11:57:08.453Z,1.67
2017-09-05T11:59:34.760Z,1.60
2017-09-05T12:02:01.116Z,2.70
2017-09-05T12:04:27.513Z,2.30
2017-09-05T12:06:53.845Z,2.37
2017-09-05T12:09:20.142Z,2.00
2017-09-05T12:11:46.523Z,1.90
2017-09-05T12:14:12.878Z,1.60
2017-09-05T12:16:39.197Z,1.33
2017-09-05T12:19:05.577Z,1.50
2017-09-05T12:21:31.894Z,1.87
2017-09-05T12:23:58.188Z,2.10
2017-09-05T12:26:24.556Z,4.17
2017-09-05T12:28:50.857Z,3.10
2017-09-05T12:31:17.160Z,2.60
2017-09-05T12:33:43.514Z,2.40
2017-09-05T12:36:09.832Z,2.50
2017-09-05T12:38:36.141Z,1.70
2017-09-05T12:41:02.499Z,1.60
2017-09-05T12:43:28.805Z,1.80
2017-09-05T12:45:55.102Z,2.03
2017-09-05T12:48:21.462Z,1.90
2017-09-05T12:50:47.783Z,1.60
2017-09-05T12:53:14.078Z,1.87
2017-09-05T12:55:40.442Z,1.70
2017-09-05T12:58:06.754Z,2.50
2017-09-05T13:00:33.059Z,2.00
2017-09-05T13:02:59.413Z,2.87
2017-09-05T13:05:25.722Z,2.07
2017-09-05T13:07:52.018Z,2.33
2017-09-05T13:10:18.394Z,2.30
2017-09-05T13:12:44.679Z,2.00
2017-09-05T13:15:10.974Z,2.40
2017-09-05T13:17:37.321Z,1.43
2017-09-05T13:20:03.643Z,2.57
2017-09-05T13:22:29.956Z,2.40
2017-09-05T13:24:56.314Z,1.63
2017-09-05T13:27:22.624Z,2.13
2017-09-05T13:29:48.939Z,1.47
2017-09-05T13:32:15.303Z,3.80
2017-09-05T13:34:41.621Z,1.93
2017-09-05T13:37:07.935Z,2.17
2017-09-05T13:39:34.252Z,1.93
2017-09-05T13:42:00.564Z,2.53
2017-09-05T13:44:26.886Z,2.43
2017-09-05T13:46:53.193Z,2.70
2017-09-05T13:49:19.659Z,3.10
2017-09-05T13:51:45.976Z,2.60
2017-09-05T13:54:12.281Z,1.80
2017-09-05T13:56:38.600Z,2.70
2017-09-05T13:59:04.920Z,2.20
2017-09-05T14:01:31.245Z,2.27
2017-09-05T14:03:57.566Z,2.40
2017-09-05T14:06:24.300Z,2.37
2017-09-05T14:08:50.746Z,2.43
2017-09-05T14:11:17.076Z,3.13
2017-09-05T14:13:43.450Z,1.80
2017-09-05T14:16:09.760Z,2.27
2017-09-05T14:18:36.072Z,2.20
2017-09-05T14:21:02.440Z,2.30
2017-09-05T14:23:28.745Z,2.17
2017-09-05T14:25:55.033Z,3.30
2017-09-05T14:28:21.405Z,3.00
2017-09-05T14:30:47.716Z,2.57
2017-09-05T14:33:14.024Z,2.83
2017-09-05T14:35:40.386Z,2.40
2017-09-05T14:38:06.673Z,2.67
2017-09-05T14:40:32.970Z,4.50
2017-09-05T14:42:59.313Z,5.87
2017-09-05T14:45:25.619Z,5.80
2017-09-05T14:47:51.909Z,5.20
2017-09-05T14:50:18.264Z,6.20
2017-09-05T14:52:44.574Z,5.30
2017-09-05T14:55:10.905Z,5.23
2017-09-05T14:57:37.275Z,5.77
2017-09-05T15:00:03.576Z,4.73
2017-09-05T15:02:29.874Z,4.37
2017-09-05T15:04:56.214Z,5.80
2017-09-05T15:07:22.501Z,5.50
2017-09-05T15:09:48.786Z,5.20
2017-09-05T15:12:15.185Z,5.17
2017-09-05T15:14:41.499Z,6.43
2017-09-05T15:17:07.779Z,6.70
2017-09-05T15:19:34.105Z,4.87
2017-09-05T15:22:00.391Z,5.90
2017-09-05T15:24:27.100Z,6.60
2017-09-05T15:26:53.533Z,5.23
2017-09-05T15:29:20.163Z,5.80
2017-09-05T15:31:46.609Z,6.70
2017-09-05T15:34:12.964Z,7.20
2017-09-05T15:36:39.259Z,5.83
2017-09-05T15:39:05.541Z,6.10
2017-09-05T15:41:31.870Z,6.00
2017-09-05T15:43:58.172Z,5.83
2017-09-05T15:46:24.475Z,7.40
2017-09-05T15:48:50.837Z,5.50
2017-09-05T15:51:17.128Z,15.57
2017-09-05T15:53:43.424Z,5.40
2017-09-05T15:56:09.818Z,5.23
2017-09-05T15:58:36.142Z,4.73
2017-09-05T16:01:02.459Z,5.67
2017-09-05T16:03:28.827Z,4.93
2017-09-05T16:05:55.136Z,4.67
2017-09-05T16:08:21.427Z,8.80
2017-09-05T16:10:47.784Z,14.30
2017-09-05T16:13:14.097Z,14.97
2017-09-05T16:15:40.382Z,7.20
2017-09-05T16:18:06.729Z,7.90
2017-09-05T16:20:33.041Z,8.60
2017-09-05T16:22:59.640Z,6.47
2017-09-05T16:25:26.104Z,8.40
2017-09-05T16:27:52.426Z,5.80
2017-09-05T16:30:18.706Z,11.57
2017-09-05T16:32:45.043Z,10.40
2017-09-05T16:35:11.355Z,8.40
2017-09-05T16:37:37.645Z,5.83
2017-09-05T16:40:04.017Z,7.60
2017-09-05T16:42:30.289Z,5.40
2017-09-05T16:44:56.581Z,6.73
2017-09-05T16:47:22.948Z,9.47
2017-09-05T16:49:49.240Z,6.53
2017-09-05T16:52:15.634Z,5.73
2017-09-05T16:54:42.215Z,7.30
2017-09-05T16:57:08.700Z,5.50
2017-09-05T16:59:35.137Z,7.40
2017-09-05T17:02:01.771Z,5.63
2017-09-05T17:04:28.194Z,7.53
2017-09-05T17:06:54.626Z,6.63
2017-09-05T17:09:21.071Z,6.70
2017-09-05T17:11:47.510Z,5.13
2017-09-05T17:14:14.123Z,7.80
2017-09-05T17:16:40.743Z,9.00
2017-09-05T17:19:07.422Z,6.20
2017-09-05T17:21:34.058Z,7.40
2017-09-05T17:24:00.652Z,8.23
2017-09-05T17:26:27.134Z,10.90
2017-09-05T17:28:53.568Z,11.47
2017-09-05T17:31:20.183Z,8.00
2017-09-05T17:33:46.695Z,7.33
2017-09-05T17:36:13.156Z,28.27
2017-09-05T17:38:39.912Z,7.10
2017-09-05T17:41:06.413Z,6.43
2017-09-05T17:43:32.777Z,6.27
2017-09-05T17:45:59.209Z,5.20
2017-09-05T17:48:25.647Z,7.33
2017-09-05T17:50:52.087Z,5.00
2017-09-05T17:53:18.646Z,7.00
2017-09-05T17:55:45.164Z,5.97
2017-09-05T17:58:11.481Z,5.07
2017-09-05T18:00:38.014Z,7.07
2017-09-05T18:03:04.520Z,5.30
2017-09-05T18:05:31.035Z,5.67
2017-09-05T18:07:57.518Z,5.30
2017-09-05T18:10:23.816Z,5.10
2017-09-05T18:12:50.179Z,4.80
2017-09-05T18:15:16.779Z,5.10
2017-09-05T18:17:43.461Z,4.77
2017-09-05T18:20:10.088Z,5.20
2017-09-05T18:22:36.454Z,5.50
2017-09-05T18:25:02.738Z,5.20
2017-09-05T18:27:29.043Z,5.83
2017-09-05T18:29:55.424Z,5.47
2017-09-05T18:32:22.050Z,4.73
2017-09-05T18:34:48.706Z,4.90
2017-09-05T18:37:15.109Z,5.10
2017-09-05T18:39:41.773Z,6.07
2017-09-05T18:42:08.388Z,5.80
2017-09-05T18:44:34.734Z,4.83
2017-09-05T18:47:01.015Z,6.47
2017-09-05T18:49:27.314Z,4.87
2017-09-05T18:51:53.799Z,4.50
2017-09-05T18:54:20.072Z,7.17
2017-09-05T18:56:46.365Z,6.37
2017-09-05T18:59:12.829Z,6.77
2017-09-05T19:01:39.254Z,5.27
2017-09-05T19:04:05.540Z,5.30
2017-09-05T19:06:32.087Z,6.23
2017-09-05T19:08:58.390Z,5.23
2017-09-05T19:11:24.687Z,6.10
2017-09-05T19:13:51.185Z,6.20
2017-09-05T19:16:17.487Z,4.97
2017-09-05T19:18:43.804Z,5.60
2017-09-05T19:21:10.171Z,7.23
2017-09-05T19:23:36.731Z,7.23
2017-09-05T19:26:03.388Z,6.93
2017-09-05T19:28:29.698Z,5.30
2017-09-05T19:30:56.044Z,5.23
2017-09-05T19:33:22.341Z,7.23
2017-09-05T19:35:48.683Z,6.50
2017-09-05T19:38:14.988Z,7.97
2017-09-05T19:40:41.268Z,7.30
2017-09-05T19:43:07.620Z,5.93
2017-09-05T19:45:33.934Z,6.20
2017-09-05T19:48:00.229Z,6.50
2017-09-05T19:50:26.599Z,6.43
2017-09-05T19:52:52.906Z,6.07
2017-09-05T19:55:19.203Z,5.93
2017-09-05T19:57:45.555Z,6.83
2017-09-05T20:00:11.845Z,6.87
2017-09-05T20:02:38.452Z,5.23
2017-09-05T20:05:04.889Z,6.23
2017-09-05T20:07:31.335Z,5.63
2017-09-05T20:09:57.677Z,6.20
2017-09-05T20:12:24.031Z,6.87
2017-09-05T20:14:50.334Z,6.63
2017-09-05T20:17:16.647Z,6.97
2017-09-05T20:19:43.167Z,7.07
2017-09-05T20:22:09.514Z,6.77
2017-09-05T20:24:35.946Z,7.90
2017-09-05T20:27:02.548Z,7.80
2017-09-05T20:29:29.014Z,7.60
2017-09-05T20:31:55.298Z,6.37
2017-09-05T20:34:21.670Z,6.47
2017-09-05T20:36:48.012Z,5.37
2017-09-05T20:39:14.324Z,6.30
2017-09-05T20:41:40.674Z,6.20
2017-09-05T20:44:06.956Z,5.10
2017-09-05T20:46:33.387Z,5.30
2017-09-05T20:48:59.945Z,5.47
2017-09-05T20:51:26.592Z,5.27
2017-09-05T20:53:53.251Z,5.00
2017-09-05T20:56:19.675Z,6.10
2017-09-05T20:58:46.319Z,6.37
2017-09-05T21:01:12.934Z,4.93
2017-09-05T21:03:39.295Z,5.37
2017-09-05T21:06:05.590Z,5.40
2017-09-05T21:08:31.900Z,6.00
2017-09-05T21:10:58.274Z,5.43
2017-09-05T21:13:24.894Z,6.70
2017-09-05T21:15:51.337Z,6.37
2017-09-05T21:18:17.950Z,4.83
2017-09-05T21:20:44.240Z,6.10
2017-09-05T21:23:10.544Z,8.97
2017-09-05T21:25:37.077Z,6.00
2017-09-05T21:28:03.382Z,6.10
2017-09-05T21:30:29.674Z,5.30
2017-09-05T21:32:56.036Z,5.90
2017-09-05T21:35:22.313Z,5.83
2017-09-05T21:37:48.596Z,5.67
2017-09-05T21:40:14.948Z,6.73
2017-09-05T21:42:41.247Z,6.53
2017-09-05T21:45:07.554Z,5.90
2017-09-05T21:47:33.888Z,7.63
2017-09-05T21:50:00.174Z,6.27
2017-09-05T21:52:26.454Z,6.37
2017-09-05T21:54:52.850Z,6.37
2017-09-05T21:57:19.130Z,6.43
2017-09-05T21:59:45.419Z,5.50
2017-09-05T22:02:11.754Z,6.37
2017-09-05T22:04:38.029Z,6.30
2017-09-05T22:07:04.301Z,5.73
2017-09-05T22:09:30.651Z,5.90
2017-09-05T22:11:56.944Z,7.03
2017-09-05T22:14:23.235Z,6.80
2017-09-05T22:16:49.612Z,6.60
2017-09-05T22:19:15.907Z,6.97
2017-09-05T22:21:42.192Z,7.37
2017-09-05T22:24:08.564Z,7.00
2017-09-05T22:26:34.860Z,5.80
2017-09-05T22:29:01.282Z,5.83
2017-09-05T22:31:27.859Z,5.50
2017-09-05T22:33:54.303Z,6.67
2017-09-05T22:36:20.992Z,6.20
2017-09-05T22:38:47.358Z,6.77
2017-09-05T22:41:13.659Z,6.40
2017-09-05T22:43:39.963Z,5.67
2017-09-05T22:46:06.312Z,6.00
2017-09-05T22:48:32.618Z,6.80
2017-09-05T22:50:58.927Z,5.97
2017-09-05T22:53:25.269Z,6.90
2017-09-05T22:55:51.547Z,6.20
2017-09-05T22:58:17.831Z,5.50
2017-09-05T23:00:44.200Z,6.03
2017-09-05T23:03:10.492Z,6.50
2017-09-05T23:05:36.792Z,5.60
2017-09-05T23:08:03.149Z,5.40
2017-09-05T23:10:29.437Z,5.43
2017-09-05T23:12:55.736Z,5.40
2017-09-05T23:15:22.113Z,5.43
2017-09-05T23:17:48.405Z,5.57
2017-09-05T23:20:14.694Z,4.90
2017-09-05T23:22:41.044Z,5.17
2017-09-05T23:25:07.330Z,6.80
2017-09-05T23:27:33.666Z,8.10
2017-09-05T23:30:00.037Z,6.60
2017-09-05T23:32:26.334Z,7.63
2017-09-05T23:34:52.634Z,6.77
2017-09-05T23:37:18.973Z,8.47
2017-09-05T23:39:45.286Z,7.33
2017-09-05T23:42:11.779Z,6.83
2017-09-05T23:44:38.644Z,7.53
2017-09-05T23:47:05.100Z,7.13
2017-09-05T23:49:31.531Z,6.80
2017-09-05T23:51:58.171Z,6.60
2017-09-05T23:54:24.597Z,6.27
2017-09-05T23:56:51.204Z,6.50
2017-09-05T23:59:17.717Z,7.90
